sensor_id;sensor_type;location;lat;lon;timestamp;P1;durP1;ratioP1;P2;durP2;ratioP2
35993;SDS011;22066;54.274;18.578;2022-09-17T00:01:28;5.80;;;1.80;;
35993;SDS011;22066;54.274;18.578;2022-09-17T00:03:56;10.20;;;2.63;;
35993;SDS011;22066;54.274;18.578;2022-09-17T00:06:26;5.47;;;1.85;;
35993;SDS011;22066;54.274;18.578;2022-09-17T00:08:52;8.88;;;1.70;;
35993;SDS011;22066;54.274;18.578;2022-09-17T00:11:20;5.18;;;1.15;;
35993;SDS011;22066;54.274;18.578;2022-09-17T00:13:47;10.77;;;2.97;;
35993;SDS011;22066;54.274;18.578;2022-09-17T00:16:19;6.13;;;1.98;;
35993;SDS011;22066;54.274;18.578;2022-09-17T00:18:46;10.18;;;2.58;;
35993;SDS011;22066;54.274;18.578;2022-09-17T00:21:16;4.05;;;1.33;;
35993;SDS011;22066;54.274;18.578;2022-09-17T00:23:42;5.78;;;1.80;;
35993;SDS011;22066;54.274;18.578;2022-09-17T00:26:08;8.70;;;1.70;;
35993;SDS011;22066;54.274;18.578;2022-09-17T00:28:34;4.43;;;1.35;;
35993;SDS011;22066;54.274;18.578;2022-09-17T00:31:05;5.57;;;1.30;;
35993;SDS011;22066;54.274;18.578;2022-09-17T00:33:31;3.83;;;1.10;;
35993;SDS011;22066;54.274;18.578;2022-09-17T00:35:57;4.72;;;1.30;;
35993;SDS011;22066;54.274;18.578;2022-09-17T00:38:24;6.65;;;0.95;;
35993;SDS011;22066;54.274;18.578;2022-09-17T00:40:50;5.35;;;1.50;;
35993;SDS011;22066;54.274;18.578;2022-09-17T00:46:02;2.38;;;0.90;;
35993;SDS011;22066;54.274;18.578;2022-09-17T00:48:28;1.73;;;0.90;;
35993;SDS011;22066;54.274;18.578;2022-09-17T00:50:54;5.43;;;1.40;;
35993;SDS011;22066;54.274;18.578;2022-09-17T00:53:20;3.17;;;1.45;;
35993;SDS011;22066;54.274;18.578;2022-09-17T00:58:31;2.50;;;1.10;;
35993;SDS011;22066;54.274;18.578;2022-09-17T01:00:58;4.35;;;1.48;;
35993;SDS011;22066;54.274;18.578;2022-09-17T01:03:24;2.95;;;1.25;;
35993;SDS011;22066;54.274;18.578;2022-09-17T01:11:49;1.58;;;0.77;;
35993;SDS011;22066;54.274;18.578;2022-09-17T01:24:26;7.75;;;1.45;;
35993;SDS011;22066;54.274;18.578;2022-09-17T01:32:21;3.90;;;1.13;;
35993;SDS011;22066;54.274;18.578;2022-09-17T01:34:56;7.90;;;2.33;;
35993;SDS011;22066;54.274;18.578;2022-09-17T01:40:04;4.28;;;1.27;;
35993;SDS011;22066;54.274;18.578;2022-09-17T01:47:54;2.13;;;1.08;;
35993;SDS011;22066;54.274;18.578;2022-09-17T01:50:23;4.68;;;1.00;;
35993;SDS011;22066;54.274;18.578;2022-09-17T01:52:50;3.42;;;1.02;;
35993;SDS011;22066;54.274;18.578;2022-09-17T01:55:18;1.55;;;0.85;;
35993;SDS011;22066;54.274;18.578;2022-09-17T01:57:48;2.67;;;1.00;;
35993;SDS011;22066;54.274;18.578;2022-09-17T02:00:15;1.55;;;0.77;;
35993;SDS011;22066;54.274;18.578;2022-09-17T02:05:33;2.22;;;1.08;;
35993;SDS011;22066;54.274;18.578;2022-09-17T02:07:58;4.18;;;1.00;;
35993;SDS011;22066;54.274;18.578;2022-09-17T02:10:29;2.70;;;0.60;;
35993;SDS011;22066;54.274;18.578;2022-09-17T02:12:58;7.28;;;1.10;;
35993;SDS011;22066;54.274;18.578;2022-09-17T02:15:27;2.15;;;0.90;;
35993;SDS011;22066;54.274;18.578;2022-09-17T02:17:58;3.03;;;0.80;;
35993;SDS011;22066;54.274;18.578;2022-09-17T02:20:28;4.20;;;0.88;;
35993;SDS011;22066;54.274;18.578;2022-09-17T02:22:56;6.53;;;0.80;;
35993;SDS011;22066;54.274;18.578;2022-09-17T02:25:27;0.37;;;0.37;;
35993;SDS011;22066;54.274;18.578;2022-09-17T02:28:16;2.58;;;0.82;;
35993;SDS011;22066;54.274;18.578;2022-09-17T02:33:29;3.88;;;0.90;;
35993;SDS011;22066;54.274;18.578;2022-09-17T02:35:55;1.48;;;0.80;;
35993;SDS011;22066;54.274;18.578;2022-09-17T02:38:24;4.93;;;1.00;;
35993;SDS011;22066;54.274;18.578;2022-09-17T02:40:52;3.70;;;1.00;;
35993;SDS011;22066;54.274;18.578;2022-09-17T02:48:27;2.08;;;0.90;;
35993;SDS011;22066;54.274;18.578;2022-09-17T03:01:22;1.73;;;1.00;;
35993;SDS011;22066;54.274;18.578;2022-09-17T03:03:50;3.42;;;0.82;;
35993;SDS011;22066;54.274;18.578;2022-09-17T03:06:17;1.98;;;0.80;;
35993;SDS011;22066;54.274;18.578;2022-09-17T03:08:44;3.08;;;1.23;;
35993;SDS011;22066;54.274;18.578;2022-09-17T03:11:11;3.58;;;1.35;;
35993;SDS011;22066;54.274;18.578;2022-09-17T03:13:38;2.70;;;1.05;;
35993;SDS011;22066;54.274;18.578;2022-09-17T03:16:04;5.03;;;1.45;;
35993;SDS011;22066;54.274;18.578;2022-09-17T03:18:31;1.52;;;1.13;;
35993;SDS011;22066;54.274;18.578;2022-09-17T03:20:57;5.00;;;1.83;;
35993;SDS011;22066;54.274;18.578;2022-09-17T03:23:23;4.28;;;1.85;;
35993;SDS011;22066;54.274;18.578;2022-09-17T03:25:49;6.35;;;1.73;;
35993;SDS011;22066;54.274;18.578;2022-09-17T03:28:16;4.90;;;1.13;;
35993;SDS011;22066;54.274;18.578;2022-09-17T03:30:42;3.42;;;1.05;;
35993;SDS011;22066;54.274;18.578;2022-09-17T03:33:08;3.85;;;1.05;;
35993;SDS011;22066;54.274;18.578;2022-09-17T03:35:35;1.40;;;1.00;;
35993;SDS011;22066;54.274;18.578;2022-09-17T03:38:01;9.25;;;1.05;;
35993;SDS011;22066;54.274;18.578;2022-09-17T03:40:27;3.47;;;0.88;;
35993;SDS011;22066;54.274;18.578;2022-09-17T03:42:53;2.88;;;1.10;;
35993;SDS011;22066;54.274;18.578;2022-09-17T03:45:19;2.60;;;0.82;;
35993;SDS011;22066;54.274;18.578;2022-09-17T03:47:45;4.60;;;1.30;;
35993;SDS011;22066;54.274;18.578;2022-09-17T03:50:11;1.05;;;0.60;;
35993;SDS011;22066;54.274;18.578;2022-09-17T03:52:37;3.13;;;0.98;;
35993;SDS011;22066;54.274;18.578;2022-09-17T03:55:03;4.05;;;0.90;;
35993;SDS011;22066;54.274;18.578;2022-09-17T03:57:29;4.95;;;0.95;;
35993;SDS011;22066;54.274;18.578;2022-09-17T03:59:55;0.82;;;0.52;;
35993;SDS011;22066;54.274;18.578;2022-09-17T04:02:21;14.18;;;0.93;;
35993;SDS011;22066;54.274;18.578;2022-09-17T04:04:47;1.17;;;0.75;;
35993;SDS011;22066;54.274;18.578;2022-09-17T04:07:13;2.60;;;0.85;;
35993;SDS011;22066;54.274;18.578;2022-09-17T04:09:39;2.45;;;0.90;;
35993;SDS011;22066;54.274;18.578;2022-09-17T04:12:05;2.33;;;0.63;;
35993;SDS011;22066;54.274;18.578;2022-09-17T04:14:31;3.47;;;0.95;;
35993;SDS011;22066;54.274;18.578;2022-09-17T04:16:57;4.60;;;0.60;;
35993;SDS011;22066;54.274;18.578;2022-09-17T04:19:23;6.18;;;1.00;;
35993;SDS011;22066;54.274;18.578;2022-09-17T04:21:49;3.97;;;0.70;;
35993;SDS011;22066;54.274;18.578;2022-09-17T04:24:15;2.40;;;0.60;;
35993;SDS011;22066;54.274;18.578;2022-09-17T04:26:41;2.67;;;0.90;;
35993;SDS011;22066;54.274;18.578;2022-09-17T04:29:07;3.25;;;1.20;;
35993;SDS011;22066;54.274;18.578;2022-09-17T04:31:34;3.17;;;0.80;;
35993;SDS011;22066;54.274;18.578;2022-09-17T04:34:00;3.28;;;0.98;;
35993;SDS011;22066;54.274;18.578;2022-09-17T04:36:26;2.65;;;1.10;;
35993;SDS011;22066;54.274;18.578;2022-09-17T04:38:52;1.25;;;0.80;;
35993;SDS011;22066;54.274;18.578;2022-09-17T04:41:18;2.65;;;1.17;;
35993;SDS011;22066;54.274;18.578;2022-09-17T04:43:44;2.00;;;1.10;;
35993;SDS011;22066;54.274;18.578;2022-09-17T04:46:10;1.58;;;0.90;;
35993;SDS011;22066;54.274;18.578;2022-09-17T04:48:38;2.38;;;0.88;;
35993;SDS011;22066;54.274;18.578;2022-09-17T04:51:04;2.30;;;1.10;;
35993;SDS011;22066;54.274;18.578;2022-09-17T04:53:30;2.65;;;1.20;;
35993;SDS011;22066;54.274;18.578;2022-09-17T04:55:56;3.83;;;1.20;;
35993;SDS011;22066;54.274;18.578;2022-09-17T04:58:22;3.40;;;1.13;;
35993;SDS011;22066;54.274;18.578;2022-09-17T05:00:48;4.15;;;1.60;;
35993;SDS011;22066;54.274;18.578;2022-09-17T05:03:14;2.13;;;1.10;;
35993;SDS011;22066;54.274;18.578;2022-09-17T05:05:40;4.60;;;1.45;;
35993;SDS011;22066;54.274;18.578;2022-09-17T05:08:06;3.97;;;1.50;;
35993;SDS011;22066;54.274;18.578;2022-09-17T05:10:32;3.97;;;1.45;;
35993;SDS011;22066;54.274;18.578;2022-09-17T05:12:58;3.33;;;1.33;;
35993;SDS011;22066;54.274;18.578;2022-09-17T05:15:25;4.28;;;1.98;;
35993;SDS011;22066;54.274;18.578;2022-09-17T05:17:51;5.93;;;1.80;;
35993;SDS011;22066;54.274;18.578;2022-09-17T05:20:17;3.22;;;1.60;;
35993;SDS011;22066;54.274;18.578;2022-09-17T05:22:44;4.50;;;1.52;;
35993;SDS011;22066;54.274;18.578;2022-09-17T05:25:11;2.97;;;1.33;;
35993;SDS011;22066;54.274;18.578;2022-09-17T05:27:38;3.67;;;1.52;;
35993;SDS011;22066;54.274;18.578;2022-09-17T05:30:04;3.83;;;1.70;;
35993;SDS011;22066;54.274;18.578;2022-09-17T05:32:30;3.40;;;1.48;;
35993;SDS011;22066;54.274;18.578;2022-09-17T05:34:56;3.65;;;1.33;;
35993;SDS011;22066;54.274;18.578;2022-09-17T05:37:22;1.92;;;1.15;;
35993;SDS011;22066;54.274;18.578;2022-09-17T05:39:48;4.60;;;1.23;;
35993;SDS011;22066;54.274;18.578;2022-09-17T05:42:14;6.47;;;1.73;;
35993;SDS011;22066;54.274;18.578;2022-09-17T05:44:40;4.57;;;1.40;;
35993;SDS011;22066;54.274;18.578;2022-09-17T05:47:06;2.30;;;1.45;;
35993;SDS011;22066;54.274;18.578;2022-09-17T05:49:32;2.88;;;1.30;;
35993;SDS011;22066;54.274;18.578;2022-09-17T05:51:58;3.45;;;1.75;;
35993;SDS011;22066;54.274;18.578;2022-09-17T05:54:24;3.60;;;1.70;;
35993;SDS011;22066;54.274;18.578;2022-09-17T05:56:52;2.28;;;1.20;;
35993;SDS011;22066;54.274;18.578;2022-09-17T05:59:18;4.65;;;1.65;;
35993;SDS011;22066;54.274;18.578;2022-09-17T06:01:45;4.45;;;1.60;;
35993;SDS011;22066;54.274;18.578;2022-09-17T06:04:11;3.35;;;1.60;;
35993;SDS011;22066;54.274;18.578;2022-09-17T06:06:37;2.65;;;1.30;;
35993;SDS011;22066;54.274;18.578;2022-09-17T06:09:05;2.53;;;1.20;;
35993;SDS011;22066;54.274;18.578;2022-09-17T06:11:31;3.88;;;1.63;;
35993;SDS011;22066;54.274;18.578;2022-09-17T06:13:57;4.97;;;1.50;;
35993;SDS011;22066;54.274;18.578;2022-09-17T06:16:23;2.83;;;1.40;;
35993;SDS011;22066;54.274;18.578;2022-09-17T06:18:49;3.22;;;1.50;;
35993;SDS011;22066;54.274;18.578;2022-09-17T06:21:17;4.35;;;1.27;;
35993;SDS011;22066;54.274;18.578;2022-09-17T06:23:43;3.13;;;1.30;;
35993;SDS011;22066;54.274;18.578;2022-09-17T06:26:10;3.35;;;1.45;;
35993;SDS011;22066;54.274;18.578;2022-09-17T06:28:36;3.40;;;1.17;;
35993;SDS011;22066;54.274;18.578;2022-09-17T06:31:03;1.95;;;1.13;;
35993;SDS011;22066;54.274;18.578;2022-09-17T06:33:30;5.13;;;1.60;;
35993;SDS011;22066;54.274;18.578;2022-09-17T06:35:57;3.22;;;1.50;;
35993;SDS011;22066;54.274;18.578;2022-09-17T06:38:25;2.53;;;1.40;;
35993;SDS011;22066;54.274;18.578;2022-09-17T06:40:51;2.95;;;1.35;;
35993;SDS011;22066;54.274;18.578;2022-09-17T06:43:17;4.25;;;1.30;;
35993;SDS011;22066;54.274;18.578;2022-09-17T06:45:43;3.22;;;1.38;;
35993;SDS011;22066;54.274;18.578;2022-09-17T06:48:09;4.35;;;1.33;;
35993;SDS011;22066;54.274;18.578;2022-09-17T06:50:35;5.10;;;1.95;;
35993;SDS011;22066;54.274;18.578;2022-09-17T06:53:01;4.50;;;1.70;;
35993;SDS011;22066;54.274;18.578;2022-09-17T06:55:27;3.42;;;1.30;;
35993;SDS011;22066;54.274;18.578;2022-09-17T06:57:57;3.67;;;1.17;;
35993;SDS011;22066;54.274;18.578;2022-09-17T07:00:24;4.13;;;1.52;;
35993;SDS011;22066;54.274;18.578;2022-09-17T07:02:54;1.98;;;1.30;;
35993;SDS011;22066;54.274;18.578;2022-09-17T07:05:21;2.58;;;1.25;;
35993;SDS011;22066;54.274;18.578;2022-09-17T07:07:47;3.13;;;1.20;;
35993;SDS011;22066;54.274;18.578;2022-09-17T07:10:13;4.45;;;1.50;;
35993;SDS011;22066;54.274;18.578;2022-09-17T07:12:39;6.80;;;1.25;;
35993;SDS011;22066;54.274;18.578;2022-09-17T07:15:06;2.28;;;1.40;;
35993;SDS011;22066;54.274;18.578;2022-09-17T07:17:32;4.05;;;1.30;;
35993;SDS011;22066;54.274;18.578;2022-09-17T07:19:58;4.35;;;1.40;;
35993;SDS011;22066;54.274;18.578;2022-09-17T07:22:24;4.78;;;1.42;;
35993;SDS011;22066;54.274;18.578;2022-09-17T07:24:50;4.13;;;1.23;;
35993;SDS011;22066;54.274;18.578;2022-09-17T07:27:16;2.20;;;1.27;;
35993;SDS011;22066;54.274;18.578;2022-09-17T07:29:42;2.63;;;1.10;;
35993;SDS011;22066;54.274;18.578;2022-09-17T07:32:08;2.88;;;1.23;;
35993;SDS011;22066;54.274;18.578;2022-09-17T07:34:38;4.00;;;1.33;;
35993;SDS011;22066;54.274;18.578;2022-09-17T07:37:04;4.68;;;1.50;;
35993;SDS011;22066;54.274;18.578;2022-09-17T07:39:29;4.57;;;1.60;;
35993;SDS011;22066;54.274;18.578;2022-09-17T07:41:56;2.45;;;1.42;;
35993;SDS011;22066;54.274;18.578;2022-09-17T07:44:22;2.00;;;1.23;;
35993;SDS011;22066;54.274;18.578;2022-09-17T07:46:48;3.85;;;1.00;;
35993;SDS011;22066;54.274;18.578;2022-09-17T07:49:15;1.65;;;1.10;;
35993;SDS011;22066;54.274;18.578;2022-09-17T07:51:41;2.97;;;1.50;;
35993;SDS011;22066;54.274;18.578;2022-09-17T07:54:07;3.38;;;1.30;;
35993;SDS011;22066;54.274;18.578;2022-09-17T07:56:33;19.10;;;1.38;;
35993;SDS011;22066;54.274;18.578;2022-09-17T07:59:00;6.03;;;1.48;;
35993;SDS011;22066;54.274;18.578;2022-09-17T08:01:26;4.10;;;1.30;;
35993;SDS011;22066;54.274;18.578;2022-09-17T08:03:53;3.83;;;1.35;;
35993;SDS011;22066;54.274;18.578;2022-09-17T08:06:20;2.22;;;1.10;;
35993;SDS011;22066;54.274;18.578;2022-09-17T08:08:47;2.40;;;1.23;;
35993;SDS011;22066;54.274;18.578;2022-09-17T08:11:18;2.58;;;1.15;;
35993;SDS011;22066;54.274;18.578;2022-09-17T08:13:51;5.90;;;1.08;;
35993;SDS011;22066;54.274;18.578;2022-09-17T08:16:18;4.72;;;1.92;;
35993;SDS011;22066;54.274;18.578;2022-09-17T08:18:44;3.67;;;1.60;;
35993;SDS011;22066;54.274;18.578;2022-09-17T08:21:12;7.63;;;1.70;;
35993;SDS011;22066;54.274;18.578;2022-09-17T08:23:38;2.70;;;1.10;;
35993;SDS011;22066;54.274;18.578;2022-09-17T08:26:06;2.58;;;1.17;;
35993;SDS011;22066;54.274;18.578;2022-09-17T08:28:33;3.70;;;1.50;;
35993;SDS011;22066;54.274;18.578;2022-09-17T08:31:03;3.92;;;1.65;;
35993;SDS011;22066;54.274;18.578;2022-09-17T08:33:30;3.08;;;1.25;;
35993;SDS011;22066;54.274;18.578;2022-09-17T08:35:56;3.83;;;1.40;;
35993;SDS011;22066;54.274;18.578;2022-09-17T08:38:24;4.32;;;1.70;;
35993;SDS011;22066;54.274;18.578;2022-09-17T08:40:55;6.30;;;2.05;;
35993;SDS011;22066;54.274;18.578;2022-09-17T08:43:22;5.43;;;1.50;;
35993;SDS011;22066;54.274;18.578;2022-09-17T08:45:53;3.45;;;1.60;;
35993;SDS011;22066;54.274;18.578;2022-09-17T08:48:19;4.20;;;1.70;;
35993;SDS011;22066;54.274;18.578;2022-09-17T08:50:45;4.75;;;2.00;;
35993;SDS011;22066;54.274;18.578;2022-09-17T09:01:01;4.13;;;1.38;;
35993;SDS011;22066;54.274;18.578;2022-09-17T09:03:44;2.60;;;1.42;;
35993;SDS011;22066;54.274;18.578;2022-09-17T09:06:11;3.10;;;1.38;;
35993;SDS011;22066;54.274;18.578;2022-09-17T09:08:39;5.65;;;1.83;;
35993;SDS011;22066;54.274;18.578;2022-09-17T09:11:14;3.67;;;1.45;;
35993;SDS011;22066;54.274;18.578;2022-09-17T09:13:51;3.05;;;1.30;;
35993;SDS011;22066;54.274;18.578;2022-09-17T09:16:20;3.22;;;1.30;;
35993;SDS011;22066;54.274;18.578;2022-09-17T09:18:52;4.15;;;1.55;;
35993;SDS011;22066;54.274;18.578;2022-09-17T09:21:23;3.00;;;1.33;;
35993;SDS011;22066;54.274;18.578;2022-09-17T09:24:37;4.97;;;1.20;;
35993;SDS011;22066;54.274;18.578;2022-09-17T09:26:43;2.75;;;1.55;;
35993;SDS011;22066;54.274;18.578;2022-09-17T09:29:12;3.47;;;1.30;;
35993;SDS011;22066;54.274;18.578;2022-09-17T09:31:46;2.78;;;1.48;;
35993;SDS011;22066;54.274;18.578;2022-09-17T09:34:16;3.88;;;2.10;;
35993;SDS011;22066;54.274;18.578;2022-09-17T09:36:42;3.40;;;1.17;;
35993;SDS011;22066;54.274;18.578;2022-09-17T09:44:14;2.80;;;1.13;;
35993;SDS011;22066;54.274;18.578;2022-09-17T09:51:45;3.20;;;1.38;;
35993;SDS011;22066;54.274;18.578;2022-09-17T09:57:01;2.78;;;1.10;;
35993;SDS011;22066;54.274;18.578;2022-09-17T09:59:30;5.57;;;1.33;;
35993;SDS011;22066;54.274;18.578;2022-09-17T10:01:56;6.40;;;1.55;;
35993;SDS011;22066;54.274;18.578;2022-09-17T10:04:23;2.92;;;1.40;;
35993;SDS011;22066;54.274;18.578;2022-09-17T10:06:54;3.10;;;1.38;;
35993;SDS011;22066;54.274;18.578;2022-09-17T10:09:20;1.73;;;1.10;;
35993;SDS011;22066;54.274;18.578;2022-09-17T10:14:34;3.63;;;1.27;;
35993;SDS011;22066;54.274;18.578;2022-09-17T10:19:36;3.28;;;1.10;;
35993;SDS011;22066;54.274;18.578;2022-09-17T10:24:44;3.50;;;1.20;;
35993;SDS011;22066;54.274;18.578;2022-09-17T10:27:14;4.35;;;2.28;;
35993;SDS011;22066;54.274;18.578;2022-09-17T10:29:45;3.60;;;1.33;;
35993;SDS011;22066;54.274;18.578;2022-09-17T10:32:15;1.73;;;0.93;;
35993;SDS011;22066;54.274;18.578;2022-09-17T10:34:42;3.03;;;1.13;;
35993;SDS011;22066;54.274;18.578;2022-09-17T10:37:41;1.98;;;0.82;;
35993;SDS011;22066;54.274;18.578;2022-09-17T10:42:46;1.88;;;0.90;;
35993;SDS011;22066;54.274;18.578;2022-09-17T10:47:48;2.15;;;0.90;;
35993;SDS011;22066;54.274;18.578;2022-09-17T10:52:45;3.78;;;1.08;;
35993;SDS011;22066;54.274;18.578;2022-09-17T11:00:23;1.23;;;0.80;;
35993;SDS011;22066;54.274;18.578;2022-09-17T11:07:50;2.40;;;0.70;;
35993;SDS011;22066;54.274;18.578;2022-09-17T11:10:29;1.30;;;0.60;;
35993;SDS011;22066;54.274;18.578;2022-09-17T11:20:46;0.88;;;0.43;;
35993;SDS011;22066;54.274;18.578;2022-09-17T11:23:29;1.25;;;0.60;;
35993;SDS011;22066;54.274;18.578;2022-09-17T11:25:58;1.92;;;1.08;;
35993;SDS011;22066;54.274;18.578;2022-09-17T11:33:23;1.42;;;0.65;;
35993;SDS011;22066;54.274;18.578;2022-09-17T11:35:54;1.08;;;0.50;;
35993;SDS011;22066;54.274;18.578;2022-09-17T11:40:55;1.45;;;0.60;;
35993;SDS011;22066;54.274;18.578;2022-09-17T11:43:28;2.50;;;0.75;;
35993;SDS011;22066;54.274;18.578;2022-09-17T11:45:59;2.55;;;0.85;;
35993;SDS011;22066;54.274;18.578;2022-09-17T11:48:28;2.60;;;1.00;;
35993;SDS011;22066;54.274;18.578;2022-09-17T11:50:58;2.17;;;1.00;;
35993;SDS011;22066;54.274;18.578;2022-09-17T11:53:58;2.28;;;0.90;;
35993;SDS011;22066;54.274;18.578;2022-09-17T11:56:19;2.78;;;1.02;;
35993;SDS011;22066;54.274;18.578;2022-09-17T11:58:57;1.73;;;0.85;;
35993;SDS011;22066;54.274;18.578;2022-09-17T12:01:27;1.42;;;1.00;;
35993;SDS011;22066;54.274;18.578;2022-09-17T12:03:57;7.00;;;1.42;;
35993;SDS011;22066;54.274;18.578;2022-09-17T12:06:28;2.38;;;0.98;;
35993;SDS011;22066;54.274;18.578;2022-09-17T12:09:02;1.45;;;0.80;;
35993;SDS011;22066;54.274;18.578;2022-09-17T12:11:32;2.45;;;0.82;;
35993;SDS011;22066;54.274;18.578;2022-09-17T12:14:08;5.55;;;1.83;;
35993;SDS011;22066;54.274;18.578;2022-09-17T12:16:39;1.95;;;1.00;;
35993;SDS011;22066;54.274;18.578;2022-09-17T12:19:50;1.65;;;0.75;;
35993;SDS011;22066;54.274;18.578;2022-09-17T12:21:58;1.40;;;0.80;;
35993;SDS011;22066;54.274;18.578;2022-09-17T12:24:25;1.65;;;0.75;;
35993;SDS011;22066;54.274;18.578;2022-09-17T12:31:50;1.15;;;0.70;;
35993;SDS011;22066;54.274;18.578;2022-09-17T12:35:02;1.42;;;0.75;;
35993;SDS011;22066;54.274;18.578;2022-09-17T12:37:09;3.28;;;0.90;;
35993;SDS011;22066;54.274;18.578;2022-09-17T12:42:13;2.40;;;0.60;;
35993;SDS011;22066;54.274;18.578;2022-09-17T12:45:28;2.00;;;0.80;;
35993;SDS011;22066;54.274;18.578;2022-09-17T13:00:19;2.72;;;0.73;;
35993;SDS011;22066;54.274;18.578;2022-09-17T13:15:58;3.38;;;0.75;;
35993;SDS011;22066;54.274;18.578;2022-09-17T13:18:27;2.83;;;0.82;;
35993;SDS011;22066;54.274;18.578;2022-09-17T13:20:57;3.45;;;1.08;;
35993;SDS011;22066;54.274;18.578;2022-09-17T13:23:28;1.88;;;0.70;;
35993;SDS011;22066;54.274;18.578;2022-09-17T13:25:55;2.10;;;0.63;;
35993;SDS011;22066;54.274;18.578;2022-09-17T13:28:34;2.28;;;0.80;;
35993;SDS011;22066;54.274;18.578;2022-09-17T13:31:00;1.60;;;0.55;;
35993;SDS011;22066;54.274;18.578;2022-09-17T13:39:02;1.55;;;0.80;;
35993;SDS011;22066;54.274;18.578;2022-09-17T13:41:28;2.17;;;0.77;;
35993;SDS011;22066;54.274;18.578;2022-09-17T13:43:54;2.78;;;0.70;;
35993;SDS011;22066;54.274;18.578;2022-09-17T13:46:21;2.60;;;0.90;;
35993;SDS011;22066;54.274;18.578;2022-09-17T13:48:49;2.53;;;0.70;;
35993;SDS011;22066;54.274;18.578;2022-09-17T13:53:55;2.33;;;0.70;;
35993;SDS011;22066;54.274;18.578;2022-09-17T13:56:38;2.10;;;0.80;;
35993;SDS011;22066;54.274;18.578;2022-09-17T13:59:14;2.13;;;0.60;;
35993;SDS011;22066;54.274;18.578;2022-09-17T14:10:33;2.13;;;0.65;;
35993;SDS011;22066;54.274;18.578;2022-09-17T14:17:53;3.40;;;0.70;;
35993;SDS011;22066;54.274;18.578;2022-09-17T14:20:19;3.90;;;0.90;;
35993;SDS011;22066;54.274;18.578;2022-09-17T14:22:59;1.83;;;0.70;;
35993;SDS011;22066;54.274;18.578;2022-09-17T14:25:33;0.77;;;0.57;;
35993;SDS011;22066;54.274;18.578;2022-09-17T14:28:02;2.35;;;0.80;;
35993;SDS011;22066;54.274;18.578;2022-09-17T14:30:30;2.60;;;0.77;;
35993;SDS011;22066;54.274;18.578;2022-09-17T14:35:35;3.13;;;0.88;;
35993;SDS011;22066;54.274;18.578;2022-09-17T14:38:09;2.75;;;0.85;;
35993;SDS011;22066;54.274;18.578;2022-09-17T14:40:41;3.10;;;1.20;;
35993;SDS011;22066;54.274;18.578;2022-09-17T14:43:42;2.25;;;0.80;;
35993;SDS011;22066;54.274;18.578;2022-09-17T14:46:00;1.45;;;0.70;;
35993;SDS011;22066;54.274;18.578;2022-09-17T14:48:29;1.17;;;0.60;;
35993;SDS011;22066;54.274;18.578;2022-09-17T14:53:40;2.15;;;0.98;;
35993;SDS011;22066;54.274;18.578;2022-09-17T14:56:06;3.00;;;0.70;;
35993;SDS011;22066;54.274;18.578;2022-09-17T14:58:34;3.60;;;0.70;;
35993;SDS011;22066;54.274;18.578;2022-09-17T15:01:01;4.28;;;0.85;;
35993;SDS011;22066;54.274;18.578;2022-09-17T15:03:27;3.35;;;0.85;;
35993;SDS011;22066;54.274;18.578;2022-09-17T15:05:53;2.33;;;0.90;;
35993;SDS011;22066;54.274;18.578;2022-09-17T15:08:21;1.50;;;0.80;;
35993;SDS011;22066;54.274;18.578;2022-09-17T15:10:54;2.05;;;0.88;;
35993;SDS011;22066;54.274;18.578;2022-09-17T15:13:23;1.80;;;0.95;;
35993;SDS011;22066;54.274;18.578;2022-09-17T15:15:58;1.55;;;0.80;;
35993;SDS011;22066;54.274;18.578;2022-09-17T15:18:30;4.60;;;1.95;;
35993;SDS011;22066;54.274;18.578;2022-09-17T15:20:57;4.10;;;0.90;;
35993;SDS011;22066;54.274;18.578;2022-09-17T15:23:24;2.47;;;0.77;;
35993;SDS011;22066;54.274;18.578;2022-09-17T15:25:52;3.40;;;1.50;;
35993;SDS011;22066;54.274;18.578;2022-09-17T15:30:48;2.72;;;1.10;;
35993;SDS011;22066;54.274;18.578;2022-09-17T15:33:15;2.95;;;0.88;;
35993;SDS011;22066;54.274;18.578;2022-09-17T15:35:56;2.90;;;1.15;;
35993;SDS011;22066;54.274;18.578;2022-09-17T15:38:26;2.90;;;1.25;;
35993;SDS011;22066;54.274;18.578;2022-09-17T15:40:52;6.07;;;1.52;;
35993;SDS011;22066;54.274;18.578;2022-09-17T15:43:25;3.08;;;1.17;;
35993;SDS011;22066;54.274;18.578;2022-09-17T15:45:52;4.07;;;1.13;;
35993;SDS011;22066;54.274;18.578;2022-09-17T15:51:01;3.90;;;1.30;;
35993;SDS011;22066;54.274;18.578;2022-09-17T15:53:28;6.75;;;1.38;;
35993;SDS011;22066;54.274;18.578;2022-09-17T15:58:25;3.85;;;1.50;;
35993;SDS011;22066;54.274;18.578;2022-09-17T16:08:47;4.47;;;1.33;;
35993;SDS011;22066;54.274;18.578;2022-09-17T16:11:14;4.30;;;1.17;;
35993;SDS011;22066;54.274;18.578;2022-09-17T16:13:40;3.42;;;1.60;;
35993;SDS011;22066;54.274;18.578;2022-09-17T16:16:08;2.67;;;1.10;;
35993;SDS011;22066;54.274;18.578;2022-09-17T16:18:38;5.60;;;1.50;;
35993;SDS011;22066;54.274;18.578;2022-09-17T16:21:04;3.97;;;1.23;;
35993;SDS011;22066;54.274;18.578;2022-09-17T16:23:30;4.22;;;1.27;;
35993;SDS011;22066;54.274;18.578;2022-09-17T16:25:56;4.18;;;1.58;;
35993;SDS011;22066;54.274;18.578;2022-09-17T16:28:22;4.28;;;1.73;;
35993;SDS011;22066;54.274;18.578;2022-09-17T16:30:48;3.25;;;1.27;;
35993;SDS011;22066;54.274;18.578;2022-09-17T16:33:15;2.88;;;1.10;;
35993;SDS011;22066;54.274;18.578;2022-09-17T16:35:41;3.30;;;1.30;;
35993;SDS011;22066;54.274;18.578;2022-09-17T16:38:08;5.63;;;1.95;;
35993;SDS011;22066;54.274;18.578;2022-09-17T16:40:38;4.00;;;1.65;;
35993;SDS011;22066;54.274;18.578;2022-09-17T16:43:04;3.00;;;1.38;;
35993;SDS011;22066;54.274;18.578;2022-09-17T16:45:31;6.05;;;1.50;;
35993;SDS011;22066;54.274;18.578;2022-09-17T16:47:56;4.57;;;1.40;;
35993;SDS011;22066;54.274;18.578;2022-09-17T16:50:23;3.60;;;1.42;;
35993;SDS011;22066;54.274;18.578;2022-09-17T16:52:49;5.70;;;1.50;;
35993;SDS011;22066;54.274;18.578;2022-09-17T16:55:15;7.07;;;1.75;;
35993;SDS011;22066;54.274;18.578;2022-09-17T16:57:42;4.35;;;1.45;;
35993;SDS011;22066;54.274;18.578;2022-09-17T17:00:09;4.75;;;1.70;;
35993;SDS011;22066;54.274;18.578;2022-09-17T17:05:03;4.45;;;1.55;;
35993;SDS011;22066;54.274;18.578;2022-09-17T17:07:29;7.00;;;1.55;;
35993;SDS011;22066;54.274;18.578;2022-09-17T17:09:58;6.20;;;1.90;;
35993;SDS011;22066;54.274;18.578;2022-09-17T17:12:24;6.05;;;1.90;;
35993;SDS011;22066;54.274;18.578;2022-09-17T17:14:50;6.30;;;2.90;;
35993;SDS011;22066;54.274;18.578;2022-09-17T17:17:18;9.80;;;4.03;;
35993;SDS011;22066;54.274;18.578;2022-09-17T17:19:44;10.55;;;4.70;;
35993;SDS011;22066;54.274;18.578;2022-09-17T17:22:13;11.65;;;6.72;;
35993;SDS011;22066;54.274;18.578;2022-09-17T17:24:40;13.10;;;7.40;;
35993;SDS011;22066;54.274;18.578;2022-09-17T17:27:06;17.55;;;7.72;;
35993;SDS011;22066;54.274;18.578;2022-09-17T17:29:36;20.13;;;10.30;;
35993;SDS011;22066;54.274;18.578;2022-09-17T17:32:03;10.18;;;5.22;;
35993;SDS011;22066;54.274;18.578;2022-09-17T17:34:29;13.05;;;6.22;;
35993;SDS011;22066;54.274;18.578;2022-09-17T17:36:56;17.13;;;8.00;;
35993;SDS011;22066;54.274;18.578;2022-09-17T17:39:22;18.02;;;7.78;;
35993;SDS011;22066;54.274;18.578;2022-09-17T17:41:48;17.50;;;8.95;;
35993;SDS011;22066;54.274;18.578;2022-09-17T17:44:14;14.07;;;6.95;;
35993;SDS011;22066;54.274;18.578;2022-09-17T17:46:40;12.15;;;6.05;;
35993;SDS011;22066;54.274;18.578;2022-09-17T17:49:06;11.02;;;4.80;;
35993;SDS011;22066;54.274;18.578;2022-09-17T17:51:33;8.90;;;3.08;;
35993;SDS011;22066;54.274;18.578;2022-09-17T17:53:59;7.72;;;2.88;;
35993;SDS011;22066;54.274;18.578;2022-09-17T17:56:25;6.72;;;2.70;;